sensor_id;sensor_type;location;lat;lon;timestamp;P1;durP1;ratioP1;P2;durP2;ratioP2
18320;SDS011;54904;54.350;18.664;2022-12-18T00:00:03;27.60;;;12.17;;
18320;SDS011;54904;54.350;18.664;2022-12-18T00:02:39;28.20;;;12.10;;
18320;SDS011;54904;54.350;18.664;2022-12-18T00:05:06;28.23;;;11.80;;
18320;SDS011;54904;54.350;18.664;2022-12-18T00:07:35;29.37;;;12.40;;
18320;SDS011;54904;54.350;18.664;2022-12-18T00:10:03;22.97;;;10.77;;
18320;SDS011;54904;54.350;18.664;2022-12-18T00:12:31;27.90;;;10.87;;
18320;SDS011;54904;54.350;18.664;2022-12-18T00:14:58;25.60;;;10.73;;
18320;SDS011;54904;54.350;18.664;2022-12-18T00:17:25;20.50;;;9.50;;
18320;SDS011;54904;54.350;18.664;2022-12-18T00:19:52;27.57;;;11.47;;
18320;SDS011;54904;54.350;18.664;2022-12-18T00:22:19;21.77;;;10.03;;
18320;SDS011;54904;54.350;18.664;2022-12-18T00:24:48;23.93;;;10.07;;
18320;SDS011;54904;54.350;18.664;2022-12-18T00:27:15;24.17;;;10.47;;
18320;SDS011;54904;54.350;18.664;2022-12-18T00:29:42;23.57;;;9.63;;
18320;SDS011;54904;54.350;18.664;2022-12-18T00:32:09;24.97;;;11.10;;
18320;SDS011;54904;54.350;18.664;2022-12-18T00:34:36;23.07;;;10.37;;
18320;SDS011;54904;54.350;18.664;2022-12-18T00:37:03;28.97;;;12.10;;
18320;SDS011;54904;54.350;18.664;2022-12-18T00:39:30;21.80;;;9.83;;
18320;SDS011;54904;54.350;18.664;2022-12-18T00:41:59;29.07;;;11.80;;
18320;SDS011;54904;54.350;18.664;2022-12-18T00:44:44;29.40;;;12.60;;
18320;SDS011;54904;54.350;18.664;2022-12-18T00:47:11;32.93;;;14.03;;
18320;SDS011;54904;54.350;18.664;2022-12-18T00:49:39;38.90;;;15.20;;
18320;SDS011;54904;54.350;18.664;2022-12-18T00:52:06;33.90;;;14.07;;
18320;SDS011;54904;54.350;18.664;2022-12-18T00:54:33;36.13;;;15.37;;
18320;SDS011;54904;54.350;18.664;2022-12-18T00:57:01;42.00;;;16.67;;
18320;SDS011;54904;54.350;18.664;2022-12-18T00:59:28;36.37;;;14.70;;
18320;SDS011;54904;54.350;18.664;2022-12-18T01:01:56;38.33;;;14.87;;
18320;SDS011;54904;54.350;18.664;2022-12-18T01:04:23;34.67;;;14.83;;
18320;SDS011;54904;54.350;18.664;2022-12-18T01:06:50;34.03;;;13.97;;
18320;SDS011;54904;54.350;18.664;2022-12-18T01:09:17;33.63;;;13.80;;
18320;SDS011;54904;54.350;18.664;2022-12-18T01:11:44;34.00;;;13.70;;
18320;SDS011;54904;54.350;18.664;2022-12-18T01:14:15;28.50;;;11.43;;
18320;SDS011;54904;54.350;18.664;2022-12-18T01:16:42;22.93;;;10.27;;
18320;SDS011;54904;54.350;18.664;2022-12-18T01:19:10;25.53;;;10.20;;
18320;SDS011;54904;54.350;18.664;2022-12-18T01:21:37;27.70;;;11.10;;
18320;SDS011;54904;54.350;18.664;2022-12-18T01:24:04;26.87;;;11.03;;
18320;SDS011;54904;54.350;18.664;2022-12-18T01:26:32;30.00;;;12.27;;
18320;SDS011;54904;54.350;18.664;2022-12-18T01:28:59;29.50;;;12.70;;
18320;SDS011;54904;54.350;18.664;2022-12-18T01:31:29;28.47;;;12.10;;
18320;SDS011;54904;54.350;18.664;2022-12-18T01:34:01;25.53;;;10.87;;
18320;SDS011;54904;54.350;18.664;2022-12-18T01:36:30;22.97;;;10.17;;
18320;SDS011;54904;54.350;18.664;2022-12-18T01:38:59;19.17;;;9.63;;
18320;SDS011;54904;54.350;18.664;2022-12-18T01:41:27;23.13;;;10.23;;
18320;SDS011;54904;54.350;18.664;2022-12-18T01:47:33;30.47;;;12.47;;
18320;SDS011;54904;54.350;18.664;2022-12-18T01:50:06;31.63;;;12.50;;
18320;SDS011;54904;54.350;18.664;2022-12-18T01:52:36;32.30;;;12.80;;
18320;SDS011;54904;54.350;18.664;2022-12-18T01:55:05;31.53;;;12.77;;
18320;SDS011;54904;54.350;18.664;2022-12-18T01:57:33;30.60;;;12.57;;
18320;SDS011;54904;54.350;18.664;2022-12-18T02:00:03;33.63;;;12.63;;
18320;SDS011;54904;54.350;18.664;2022-12-18T02:02:40;28.80;;;11.80;;
18320;SDS011;54904;54.350;18.664;2022-12-18T02:05:09;30.57;;;13.20;;
18320;SDS011;54904;54.350;18.664;2022-12-18T02:07:40;30.70;;;13.33;;
18320;SDS011;54904;54.350;18.664;2022-12-18T02:10:13;30.60;;;12.77;;
18320;SDS011;54904;54.350;18.664;2022-12-18T02:12:48;30.60;;;11.60;;
18320;SDS011;54904;54.350;18.664;2022-12-18T02:15:22;24.33;;;10.83;;
18320;SDS011;54904;54.350;18.664;2022-12-18T02:17:55;27.03;;;11.30;;
18320;SDS011;54904;54.350;18.664;2022-12-18T02:20:27;24.27;;;9.53;;
18320;SDS011;54904;54.350;18.664;2022-12-18T02:23:03;26.23;;;9.87;;
18320;SDS011;54904;54.350;18.664;2022-12-18T02:25:40;20.57;;;8.90;;
18320;SDS011;54904;54.350;18.664;2022-12-18T02:28:25;27.43;;;11.00;;
18320;SDS011;54904;54.350;18.664;2022-12-18T02:30:59;31.20;;;11.50;;
18320;SDS011;54904;54.350;18.664;2022-12-18T02:33:33;23.60;;;10.57;;
18320;SDS011;54904;54.350;18.664;2022-12-18T02:36:02;25.10;;;10.33;;
18320;SDS011;54904;54.350;18.664;2022-12-18T02:38:31;25.87;;;11.60;;
18320;SDS011;54904;54.350;18.664;2022-12-18T02:41:09;23.27;;;10.10;;
18320;SDS011;54904;54.350;18.664;2022-12-18T02:43:38;26.77;;;10.00;;
18320;SDS011;54904;54.350;18.664;2022-12-18T02:46:23;20.63;;;9.40;;
18320;SDS011;54904;54.350;18.664;2022-12-18T02:48:57;29.63;;;10.87;;
18320;SDS011;54904;54.350;18.664;2022-12-18T02:51:46;25.50;;;10.10;;
18320;SDS011;54904;54.350;18.664;2022-12-18T02:54:21;20.67;;;8.63;;
18320;SDS011;54904;54.350;18.664;2022-12-18T02:57:00;22.63;;;9.33;;
18320;SDS011;54904;54.350;18.664;2022-12-18T02:59:36;22.03;;;9.03;;
18320;SDS011;54904;54.350;18.664;2022-12-18T03:02:14;21.77;;;8.60;;
18320;SDS011;54904;54.350;18.664;2022-12-18T03:04:49;32.53;;;11.60;;
18320;SDS011;54904;54.350;18.664;2022-12-18T03:07:25;23.03;;;10.07;;
18320;SDS011;54904;54.350;18.664;2022-12-18T03:09:59;26.27;;;11.40;;
18320;SDS011;54904;54.350;18.664;2022-12-18T03:12:30;21.60;;;9.30;;
18320;SDS011;54904;54.350;18.664;2022-12-18T03:14:59;25.57;;;9.73;;
18320;SDS011;54904;54.350;18.664;2022-12-18T03:17:30;19.33;;;8.70;;
18320;SDS011;54904;54.350;18.664;2022-12-18T03:20:00;24.70;;;10.50;;
18320;SDS011;54904;54.350;18.664;2022-12-18T03:22:32;23.20;;;8.73;;
18320;SDS011;54904;54.350;18.664;2022-12-18T03:25:03;24.70;;;9.60;;
18320;SDS011;54904;54.350;18.664;2022-12-18T03:27:35;24.67;;;9.60;;
18320;SDS011;54904;54.350;18.664;2022-12-18T03:30:12;22.20;;;8.83;;
18320;SDS011;54904;54.350;18.664;2022-12-18T03:32:42;22.00;;;9.43;;
18320;SDS011;54904;54.350;18.664;2022-12-18T03:35:14;16.43;;;7.57;;
18320;SDS011;54904;54.350;18.664;2022-12-18T03:37:46;26.73;;;9.87;;
18320;SDS011;54904;54.350;18.664;2022-12-18T03:40:14;23.40;;;9.47;;
18320;SDS011;54904;54.350;18.664;2022-12-18T03:42:45;18.03;;;7.93;;
18320;SDS011;54904;54.350;18.664;2022-12-18T03:45:19;23.20;;;9.87;;
18320;SDS011;54904;54.350;18.664;2022-12-18T03:47:53;25.10;;;10.13;;
18320;SDS011;54904;54.350;18.664;2022-12-18T03:50:34;25.57;;;10.00;;
18320;SDS011;54904;54.350;18.664;2022-12-18T03:53:09;21.40;;;8.90;;
18320;SDS011;54904;54.350;18.664;2022-12-18T03:55:46;20.00;;;8.40;;
18320;SDS011;54904;54.350;18.664;2022-12-18T03:58:17;23.97;;;9.17;;
18320;SDS011;54904;54.350;18.664;2022-12-18T04:01:05;20.90;;;8.83;;
18320;SDS011;54904;54.350;18.664;2022-12-18T04:03:35;20.90;;;8.33;;
18320;SDS011;54904;54.350;18.664;2022-12-18T04:06:05;21.70;;;8.73;;
18320;SDS011;54904;54.350;18.664;2022-12-18T04:08:39;20.67;;;8.70;;
18320;SDS011;54904;54.350;18.664;2022-12-18T04:11:10;18.47;;;8.07;;
18320;SDS011;54904;54.350;18.664;2022-12-18T04:13:39;19.27;;;8.40;;
18320;SDS011;54904;54.350;18.664;2022-12-18T04:16:15;20.60;;;8.40;;
18320;SDS011;54904;54.350;18.664;2022-12-18T04:18:44;19.83;;;8.13;;
18320;SDS011;54904;54.350;18.664;2022-12-18T04:21:13;21.20;;;9.00;;
18320;SDS011;54904;54.350;18.664;2022-12-18T04:23:41;18.90;;;7.90;;
18320;SDS011;54904;54.350;18.664;2022-12-18T04:26:08;18.03;;;8.03;;
18320;SDS011;54904;54.350;18.664;2022-12-18T04:28:49;14.87;;;6.90;;
18320;SDS011;54904;54.350;18.664;2022-12-18T04:31:16;15.10;;;6.87;;
18320;SDS011;54904;54.350;18.664;2022-12-18T04:33:43;15.73;;;6.47;;
18320;SDS011;54904;54.350;18.664;2022-12-18T04:36:12;13.33;;;6.43;;
18320;SDS011;54904;54.350;18.664;2022-12-18T04:38:40;13.30;;;6.63;;
18320;SDS011;54904;54.350;18.664;2022-12-18T04:41:11;15.10;;;6.37;;
18320;SDS011;54904;54.350;18.664;2022-12-18T04:43:39;13.90;;;5.70;;
18320;SDS011;54904;54.350;18.664;2022-12-18T04:46:08;11.77;;;5.50;;
18320;SDS011;54904;54.350;18.664;2022-12-18T04:48:35;10.83;;;5.30;;
18320;SDS011;54904;54.350;18.664;2022-12-18T04:51:03;8.77;;;4.50;;
18320;SDS011;54904;54.350;18.664;2022-12-18T04:53:31;11.03;;;5.73;;
18320;SDS011;54904;54.350;18.664;2022-12-18T04:56:02;10.77;;;5.13;;
18320;SDS011;54904;54.350;18.664;2022-12-18T04:58:30;10.90;;;5.40;;
18320;SDS011;54904;54.350;18.664;2022-12-18T05:00:57;10.93;;;5.83;;
18320;SDS011;54904;54.350;18.664;2022-12-18T05:03:26;10.17;;;5.80;;
18320;SDS011;54904;54.350;18.664;2022-12-18T05:05:53;9.37;;;4.87;;
18320;SDS011;54904;54.350;18.664;2022-12-18T05:08:20;11.43;;;5.77;;
18320;SDS011;54904;54.350;18.664;2022-12-18T05:10:47;9.97;;;4.93;;
18320;SDS011;54904;54.350;18.664;2022-12-18T05:13:15;10.30;;;4.90;;
18320;SDS011;54904;54.350;18.664;2022-12-18T05:15:42;13.37;;;5.43;;
18320;SDS011;54904;54.350;18.664;2022-12-18T05:18:09;9.63;;;4.83;;
18320;SDS011;54904;54.350;18.664;2022-12-18T05:20:37;10.27;;;5.03;;
18320;SDS011;54904;54.350;18.664;2022-12-18T05:23:04;13.07;;;5.30;;
18320;SDS011;54904;54.350;18.664;2022-12-18T05:25:32;11.27;;;4.77;;
18320;SDS011;54904;54.350;18.664;2022-12-18T05:27:59;9.90;;;4.60;;
18320;SDS011;54904;54.350;18.664;2022-12-18T05:30:26;9.10;;;5.00;;
18320;SDS011;54904;54.350;18.664;2022-12-18T05:32:53;11.23;;;5.60;;
18320;SDS011;54904;54.350;18.664;2022-12-18T05:35:21;10.07;;;4.80;;
18320;SDS011;54904;54.350;18.664;2022-12-18T05:37:49;10.33;;;4.70;;
18320;SDS011;54904;54.350;18.664;2022-12-18T05:40:16;7.73;;;4.33;;
18320;SDS011;54904;54.350;18.664;2022-12-18T05:42:43;8.73;;;4.73;;
18320;SDS011;54904;54.350;18.664;2022-12-18T05:45:10;9.00;;;5.00;;
18320;SDS011;54904;54.350;18.664;2022-12-18T05:47:37;10.30;;;4.67;;
18320;SDS011;54904;54.350;18.664;2022-12-18T05:50:05;6.90;;;4.40;;
18320;SDS011;54904;54.350;18.664;2022-12-18T05:52:33;9.10;;;4.60;;
18320;SDS011;54904;54.350;18.664;2022-12-18T05:55:02;9.60;;;4.63;;
18320;SDS011;54904;54.350;18.664;2022-12-18T05:57:30;7.70;;;4.70;;
18320;SDS011;54904;54.350;18.664;2022-12-18T05:59:57;11.10;;;5.43;;
18320;SDS011;54904;54.350;18.664;2022-12-18T06:02:24;10.23;;;4.83;;
18320;SDS011;54904;54.350;18.664;2022-12-18T06:04:51;7.33;;;4.27;;
18320;SDS011;54904;54.350;18.664;2022-12-18T06:07:18;8.37;;;4.60;;
18320;SDS011;54904;54.350;18.664;2022-12-18T06:09:45;9.27;;;4.33;;
18320;SDS011;54904;54.350;18.664;2022-12-18T06:12:13;9.37;;;5.07;;
18320;SDS011;54904;54.350;18.664;2022-12-18T06:14:40;8.57;;;4.23;;
18320;SDS011;54904;54.350;18.664;2022-12-18T06:17:07;7.43;;;4.93;;
18320;SDS011;54904;54.350;18.664;2022-12-18T06:19:35;9.40;;;4.73;;
18320;SDS011;54904;54.350;18.664;2022-12-18T06:22:02;7.97;;;4.30;;
18320;SDS011;54904;54.350;18.664;2022-12-18T06:24:29;7.33;;;4.57;;
18320;SDS011;54904;54.350;18.664;2022-12-18T06:26:56;9.47;;;4.90;;
18320;SDS011;54904;54.350;18.664;2022-12-18T06:29:25;8.37;;;4.60;;
18320;SDS011;54904;54.350;18.664;2022-12-18T06:31:52;10.53;;;5.10;;
18320;SDS011;54904;54.350;18.664;2022-12-18T06:34:19;9.83;;;5.47;;
18320;SDS011;54904;54.350;18.664;2022-12-18T06:36:46;10.10;;;5.80;;
18320;SDS011;54904;54.350;18.664;2022-12-18T06:39:13;10.23;;;5.30;;
18320;SDS011;54904;54.350;18.664;2022-12-18T06:41:40;10.33;;;4.93;;
18320;SDS011;54904;54.350;18.664;2022-12-18T06:44:07;10.93;;;5.20;;
18320;SDS011;54904;54.350;18.664;2022-12-18T06:46:36;10.20;;;5.40;;
18320;SDS011;54904;54.350;18.664;2022-12-18T06:49:04;11.07;;;5.77;;
18320;SDS011;54904;54.350;18.664;2022-12-18T06:51:31;8.63;;;5.17;;
18320;SDS011;54904;54.350;18.664;2022-12-18T06:53:58;8.53;;;4.63;;
18320;SDS011;54904;54.350;18.664;2022-12-18T06:56:26;8.03;;;4.50;;
18320;SDS011;54904;54.350;18.664;2022-12-18T06:58:53;10.50;;;5.07;;
18320;SDS011;54904;54.350;18.664;2022-12-18T07:01:21;8.87;;;5.30;;
18320;SDS011;54904;54.350;18.664;2022-12-18T07:03:52;10.27;;;5.43;;
18320;SDS011;54904;54.350;18.664;2022-12-18T07:06:21;10.97;;;6.20;;
18320;SDS011;54904;54.350;18.664;2022-12-18T07:08:49;10.07;;;5.13;;
18320;SDS011;54904;54.350;18.664;2022-12-18T07:11:19;12.43;;;6.07;;
18320;SDS011;54904;54.350;18.664;2022-12-18T07:13:46;11.60;;;5.70;;
18320;SDS011;54904;54.350;18.664;2022-12-18T07:16:14;14.40;;;6.07;;
18320;SDS011;54904;54.350;18.664;2022-12-18T07:18:42;13.73;;;6.33;;
18320;SDS011;54904;54.350;18.664;2022-12-18T07:21:12;13.00;;;6.17;;
18320;SDS011;54904;54.350;18.664;2022-12-18T07:23:40;12.83;;;5.67;;
18320;SDS011;54904;54.350;18.664;2022-12-18T07:26:08;12.53;;;6.03;;
18320;SDS011;54904;54.350;18.664;2022-12-18T07:28:37;12.37;;;6.67;;
18320;SDS011;54904;54.350;18.664;2022-12-18T07:31:05;14.93;;;6.90;;
18320;SDS011;54904;54.350;18.664;2022-12-18T07:33:34;11.20;;;5.80;;
18320;SDS011;54904;54.350;18.664;2022-12-18T07:36:01;9.77;;;5.23;;
18320;SDS011;54904;54.350;18.664;2022-12-18T07:38:31;11.77;;;6.57;;
18320;SDS011;54904;54.350;18.664;2022-12-18T07:41:02;12.00;;;6.70;;
18320;SDS011;54904;54.350;18.664;2022-12-18T07:43:30;15.57;;;6.73;;
18320;SDS011;54904;54.350;18.664;2022-12-18T07:45:57;13.37;;;6.30;;
18320;SDS011;54904;54.350;18.664;2022-12-18T07:48:24;12.80;;;5.97;;
18320;SDS011;54904;54.350;18.664;2022-12-18T07:50:52;12.77;;;6.70;;
18320;SDS011;54904;54.350;18.664;2022-12-18T07:53:19;12.70;;;6.63;;
18320;SDS011;54904;54.350;18.664;2022-12-18T07:55:54;14.30;;;6.83;;
18320;SDS011;54904;54.350;18.664;2022-12-18T07:58:21;13.70;;;6.10;;
18320;SDS011;54904;54.350;18.664;2022-12-18T08:00:49;11.27;;;6.27;;
18320;SDS011;54904;54.350;18.664;2022-12-18T08:03:17;13.17;;;6.40;;
18320;SDS011;54904;54.350;18.664;2022-12-18T08:05:47;10.80;;;5.47;;
18320;SDS011;54904;54.350;18.664;2022-12-18T08:08:15;10.50;;;5.63;;
18320;SDS011;54904;54.350;18.664;2022-12-18T08:10:42;9.90;;;5.27;;
18320;SDS011;54904;54.350;18.664;2022-12-18T08:13:11;10.73;;;5.47;;
18320;SDS011;54904;54.350;18.664;2022-12-18T08:15:38;12.00;;;5.80;;
18320;SDS011;54904;54.350;18.664;2022-12-18T08:18:05;13.30;;;6.33;;
18320;SDS011;54904;54.350;18.664;2022-12-18T08:20:32;12.83;;;6.10;;
18320;SDS011;54904;54.350;18.664;2022-12-18T08:22:59;13.70;;;6.47;;
18320;SDS011;54904;54.350;18.664;2022-12-18T08:25:26;12.67;;;6.10;;
18320;SDS011;54904;54.350;18.664;2022-12-18T08:27:54;12.53;;;6.27;;
18320;SDS011;54904;54.350;18.664;2022-12-18T08:30:23;14.83;;;6.80;;
18320;SDS011;54904;54.350;18.664;2022-12-18T08:32:50;13.03;;;5.77;;
18320;SDS011;54904;54.350;18.664;2022-12-18T08:35:18;10.07;;;5.60;;
18320;SDS011;54904;54.350;18.664;2022-12-18T08:37:45;11.20;;;6.27;;
18320;SDS011;54904;54.350;18.664;2022-12-18T08:40:12;8.07;;;4.83;;
18320;SDS011;54904;54.350;18.664;2022-12-18T08:42:39;11.00;;;5.33;;
18320;SDS011;54904;54.350;18.664;2022-12-18T08:45:25;12.23;;;5.60;;
18320;SDS011;54904;54.350;18.664;2022-12-18T08:47:52;8.80;;;4.80;;
18320;SDS011;54904;54.350;18.664;2022-12-18T08:50:20;10.97;;;5.83;;
18320;SDS011;54904;54.350;18.664;2022-12-18T08:52:50;10.30;;;5.27;;
18320;SDS011;54904;54.350;18.664;2022-12-18T08:55:17;12.63;;;5.83;;
18320;SDS011;54904;54.350;18.664;2022-12-18T08:57:47;9.47;;;4.93;;
18320;SDS011;54904;54.350;18.664;2022-12-18T09:00:15;10.30;;;5.00;;
18320;SDS011;54904;54.350;18.664;2022-12-18T09:02:44;9.20;;;4.47;;
18320;SDS011;54904;54.350;18.664;2022-12-18T09:05:11;9.67;;;4.57;;
18320;SDS011;54904;54.350;18.664;2022-12-18T09:07:38;7.20;;;4.30;;
18320;SDS011;54904;54.350;18.664;2022-12-18T09:10:05;9.47;;;4.57;;
18320;SDS011;54904;54.350;18.664;2022-12-18T09:12:33;10.47;;;5.17;;
18320;SDS011;54904;54.350;18.664;2022-12-18T09:15:00;11.37;;;5.07;;
18320;SDS011;54904;54.350;18.664;2022-12-18T09:17:27;10.40;;;4.73;;
18320;SDS011;54904;54.350;18.664;2022-12-18T09:19:55;8.23;;;4.50;;
18320;SDS011;54904;54.350;18.664;2022-12-18T09:22:22;6.27;;;3.90;;
18320;SDS011;54904;54.350;18.664;2022-12-18T09:24:49;7.00;;;4.10;;
18320;SDS011;54904;54.350;18.664;2022-12-18T09:27:16;9.03;;;4.63;;
18320;SDS011;54904;54.350;18.664;2022-12-18T09:29:44;9.40;;;4.13;;
18320;SDS011;54904;54.350;18.664;2022-12-18T09:32:11;7.73;;;4.00;;
18320;SDS011;54904;54.350;18.664;2022-12-18T09:34:38;7.33;;;3.80;;
18320;SDS011;54904;54.350;18.664;2022-12-18T09:37:06;6.13;;;3.80;;
18320;SDS011;54904;54.350;18.664;2022-12-18T09:39:33;6.50;;;3.90;;
18320;SDS011;54904;54.350;18.664;2022-12-18T09:42:00;8.30;;;4.10;;
18320;SDS011;54904;54.350;18.664;2022-12-18T09:44:28;6.30;;;3.60;;
18320;SDS011;54904;54.350;18.664;2022-12-18T09:47:00;8.53;;;4.00;;
18320;SDS011;54904;54.350;18.664;2022-12-18T09:49:33;7.70;;;3.73;;
18320;SDS011;54904;54.350;18.664;2022-12-18T09:52:04;7.77;;;4.30;;
18320;SDS011;54904;54.350;18.664;2022-12-18T09:54:39;7.43;;;4.20;;
18320;SDS011;54904;54.350;18.664;2022-12-18T09:57:11;8.07;;;4.50;;
18320;SDS011;54904;54.350;18.664;2022-12-18T09:59:40;6.83;;;4.07;;
18320;SDS011;54904;54.350;18.664;2022-12-18T10:02:17;7.57;;;4.20;;
18320;SDS011;54904;54.350;18.664;2022-12-18T10:04:55;7.57;;;3.83;;
18320;SDS011;54904;54.350;18.664;2022-12-18T10:07:37;7.73;;;4.10;;
18320;SDS011;54904;54.350;18.664;2022-12-18T10:10:23;8.53;;;4.40;;
18320;SDS011;54904;54.350;18.664;2022-12-18T10:13:00;8.40;;;4.60;;
18320;SDS011;54904;54.350;18.664;2022-12-18T10:15:34;7.60;;;4.40;;
18320;SDS011;54904;54.350;18.664;2022-12-18T10:18:14;8.20;;;4.70;;
18320;SDS011;54904;54.350;18.664;2022-12-18T10:20:53;6.77;;;3.80;;
18320;SDS011;54904;54.350;18.664;2022-12-18T10:23:28;7.60;;;4.37;;
18320;SDS011;54904;54.350;18.664;2022-12-18T10:26:00;9.13;;;4.73;;
18320;SDS011;54904;54.350;18.664;2022-12-18T10:28:30;7.30;;;3.80;;
18320;SDS011;54904;54.350;18.664;2022-12-18T10:30:58;9.03;;;4.30;;
18320;SDS011;54904;54.350;18.664;2022-12-18T10:33:27;9.43;;;4.77;;
18320;SDS011;54904;54.350;18.664;2022-12-18T10:35:57;9.47;;;4.70;;
18320;SDS011;54904;54.350;18.664;2022-12-18T10:38:25;8.07;;;4.00;;
18320;SDS011;54904;54.350;18.664;2022-12-18T10:40:55;7.10;;;4.33;;
18320;SDS011;54904;54.350;18.664;2022-12-18T10:43:25;8.43;;;4.73;;
18320;SDS011;54904;54.350;18.664;2022-12-18T10:48:50;7.70;;;4.40;;
18320;SDS011;54904;54.350;18.664;2022-12-18T10:51:20;8.73;;;4.20;;
18320;SDS011;54904;54.350;18.664;2022-12-18T10:53:56;8.30;;;4.00;;
18320;SDS011;54904;54.350;18.664;2022-12-18T10:56:27;6.67;;;3.93;;
18320;SDS011;54904;54.350;18.664;2022-12-18T10:58:57;8.90;;;4.40;;
18320;SDS011;54904;54.350;18.664;2022-12-18T11:01:26;8.00;;;4.20;;
18320;SDS011;54904;54.350;18.664;2022-12-18T11:04:02;5.57;;;3.83;;
18320;SDS011;54904;54.350;18.664;2022-12-18T11:06:35;9.47;;;4.87;;
18320;SDS011;54904;54.350;18.664;2022-12-18T11:09:22;7.80;;;4.40;;
18320;SDS011;54904;54.350;18.664;2022-12-18T11:11:51;8.47;;;4.27;;
18320;SDS011;54904;54.350;18.664;2022-12-18T11:14:21;8.57;;;3.87;;
18320;SDS011;54904;54.350;18.664;2022-12-18T11:16:50;7.27;;;4.00;;
18320;SDS011;54904;54.350;18.664;2022-12-18T11:19:26;11.27;;;4.57;;
18320;SDS011;54904;54.350;18.664;2022-12-18T11:21:58;8.10;;;4.50;;
18320;SDS011;54904;54.350;18.664;2022-12-18T11:24:29;7.80;;;4.23;;
18320;SDS011;54904;54.350;18.664;2022-12-18T11:27:00;7.10;;;4.13;;
18320;SDS011;54904;54.350;18.664;2022-12-18T11:29:33;7.23;;;4.67;;
18320;SDS011;54904;54.350;18.664;2022-12-18T11:34:52;6.70;;;3.97;;
18320;SDS011;54904;54.350;18.664;2022-12-18T11:37:27;7.77;;;4.00;;
18320;SDS011;54904;54.350;18.664;2022-12-18T11:39:58;5.37;;;3.43;;
18320;SDS011;54904;54.350;18.664;2022-12-18T11:42:32;9.20;;;3.93;;
18320;SDS011;54904;54.350;18.664;2022-12-18T11:45:08;5.63;;;3.40;;
18320;SDS011;54904;54.350;18.664;2022-12-18T11:48:01;5.83;;;3.50;;
18320;SDS011;54904;54.350;18.664;2022-12-18T11:50:37;12.67;;;6.73;;
18320;SDS011;54904;54.350;18.664;2022-12-18T11:53:14;12.00;;;6.37;;
18320;SDS011;54904;54.350;18.664;2022-12-18T11:55:49;11.60;;;5.97;;
18320;SDS011;54904;54.350;18.664;2022-12-18T11:58:29;13.80;;;6.00;;
18320;SDS011;54904;54.350;18.664;2022-12-18T12:01:15;10.07;;;5.63;;
18320;SDS011;54904;54.350;18.664;2022-12-18T12:06:55;10.10;;;4.60;;
18320;SDS011;54904;54.350;18.664;2022-12-18T12:09:30;7.53;;;4.17;;
18320;SDS011;54904;54.350;18.664;2022-12-18T12:12:09;8.33;;;3.80;;
18320;SDS011;54904;54.350;18.664;2022-12-18T12:14:49;6.87;;;4.07;;
18320;SDS011;54904;54.350;18.664;2022-12-18T12:17:27;7.70;;;3.67;;
18320;SDS011;54904;54.350;18.664;2022-12-18T12:20:06;5.60;;;3.53;;
18320;SDS011;54904;54.350;18.664;2022-12-18T12:22:41;6.03;;;3.47;;
18320;SDS011;54904;54.350;18.664;2022-12-18T12:25:21;6.67;;;3.73;;
18320;SDS011;54904;54.350;18.664;2022-12-18T12:28:04;8.53;;;4.00;;
18320;SDS011;54904;54.350;18.664;2022-12-18T12:30:43;7.23;;;4.17;;
18320;SDS011;54904;54.350;18.664;2022-12-18T12:33:24;4.87;;;3.40;;
18320;SDS011;54904;54.350;18.664;2022-12-18T12:36:01;5.97;;;3.60;;
18320;SDS011;54904;54.350;18.664;2022-12-18T12:38:35;7.97;;;4.20;;
18320;SDS011;54904;54.350;18.664;2022-12-18T12:41:08;8.87;;;4.13;;
18320;SDS011;54904;54.350;18.664;2022-12-18T12:44:01;7.10;;;4.07;;
18320;SDS011;54904;54.350;18.664;2022-12-18T12:46:29;7.60;;;4.43;;
18320;SDS011;54904;54.350;18.664;2022-12-18T12:48:59;7.60;;;4.37;;
18320;SDS011;54904;54.350;18.664;2022-12-18T12:51:30;7.93;;;4.67;;
18320;SDS011;54904;54.350;18.664;2022-12-18T12:54:00;6.97;;;4.20;;
18320;SDS011;54904;54.350;18.664;2022-12-18T12:56:32;7.43;;;4.13;;
18320;SDS011;54904;54.350;18.664;2022-12-18T12:59:08;6.70;;;3.53;;
18320;SDS011;54904;54.350;18.664;2022-12-18T13:01:47;7.60;;;4.13;;
18320;SDS011;54904;54.350;18.664;2022-12-18T13:04:21;7.20;;;4.23;;
18320;SDS011;54904;54.350;18.664;2022-12-18T13:06:55;9.67;;;5.17;;
18320;SDS011;54904;54.350;18.664;2022-12-18T13:09:29;8.07;;;4.57;;
18320;SDS011;54904;54.350;18.664;2022-12-18T13:12:01;8.30;;;4.33;;
18320;SDS011;54904;54.350;18.664;2022-12-18T13:14:49;6.17;;;3.90;;
18320;SDS011;54904;54.350;18.664;2022-12-18T13:20:09;8.10;;;4.20;;
18320;SDS011;54904;54.350;18.664;2022-12-18T13:22:39;8.00;;;4.77;;
18320;SDS011;54904;54.350;18.664;2022-12-18T13:25:31;10.90;;;5.73;;
18320;SDS011;54904;54.350;18.664;2022-12-18T13:28:11;9.90;;;5.37;;
18320;SDS011;54904;54.350;18.664;2022-12-18T13:33:36;9.43;;;4.60;;
18320;SDS011;54904;54.350;18.664;2022-12-18T13:36:11;8.50;;;4.47;;
18320;SDS011;54904;54.350;18.664;2022-12-18T13:38:41;9.33;;;5.30;;
18320;SDS011;54904;54.350;18.664;2022-12-18T13:41:21;10.23;;;6.13;;
18320;SDS011;54904;54.350;18.664;2022-12-18T13:43:50;9.67;;;5.03;;
18320;SDS011;54904;54.350;18.664;2022-12-18T13:46:21;8.37;;;4.50;;
18320;SDS011;54904;54.350;18.664;2022-12-18T13:48:53;10.07;;;5.57;;
18320;SDS011;54904;54.350;18.664;2022-12-18T13:51:26;9.63;;;4.93;;
18320;SDS011;54904;54.350;18.664;2022-12-18T13:53:56;12.83;;;5.90;;
18320;SDS011;54904;54.350;18.664;2022-12-18T13:56:26;14.13;;;6.03;;
18320;SDS011;54904;54.350;18.664;2022-12-18T14:01:46;10.30;;;5.37;;
18320;SDS011;54904;54.350;18.664;2022-12-18T14:04:18;10.53;;;5.43;;
18320;SDS011;54904;54.350;18.664;2022-12-18T14:06:47;9.77;;;5.37;;
18320;SDS011;54904;54.350;18.664;2022-12-18T14:09:18;9.23;;;5.13;;
18320;SDS011;54904;54.350;18.664;2022-12-18T14:11:51;12.70;;;5.53;;
18320;SDS011;54904;54.350;18.664;2022-12-18T14:14:41;14.63;;;6.83;;
18320;SDS011;54904;54.350;18.664;2022-12-18T14:17:11;14.27;;;6.17;;
18320;SDS011;54904;54.350;18.664;2022-12-18T14:19:43;11.67;;;5.97;;
18320;SDS011;54904;54.350;18.664;2022-12-18T14:22:15;12.30;;;5.50;;
18320;SDS011;54904;54.350;18.664;2022-12-18T14:24:44;10.23;;;4.87;;
18320;SDS011;54904;54.350;18.664;2022-12-18T14:27:12;13.30;;;6.50;;
18320;SDS011;54904;54.350;18.664;2022-12-18T14:29:50;14.47;;;6.37;;
18320;SDS011;54904;54.350;18.664;2022-12-18T14:32:19;15.50;;;6.83;;
18320;SDS011;54904;54.350;18.664;2022-12-18T14:34:48;16.83;;;7.13;;
18320;SDS011;54904;54.350;18.664;2022-12-18T14:37:17;14.07;;;6.70;;
18320;SDS011;54904;54.350;18.664;2022-12-18T14:39:54;10.30;;;5.93;;
18320;SDS011;54904;54.350;18.664;2022-12-18T14:42:23;19.50;;;7.53;;
18320;SDS011;54904;54.350;18.664;2022-12-18T14:48:05;20.33;;;7.77;;
18320;SDS011;54904;54.350;18.664;2022-12-18T14:50:34;15.13;;;7.30;;
18320;SDS011;54904;54.350;18.664;2022-12-18T14:53:01;14.93;;;6.73;;
18320;SDS011;54904;54.350;18.664;2022-12-18T14:55:29;20.43;;;9.30;;
18320;SDS011;54904;54.350;18.664;2022-12-18T14:57:56;27.37;;;11.90;;
18320;SDS011;54904;54.350;18.664;2022-12-18T15:00:24;22.60;;;11.10;;
18320;SDS011;54904;54.350;18.664;2022-12-18T15:02:53;36.70;;;13.50;;
18320;SDS011;54904;54.350;18.664;2022-12-18T15:05:26;31.17;;;13.97;;
18320;SDS011;54904;54.350;18.664;2022-12-18T15:07:55;33.93;;;14.93;;